Time;durP1;ratioP1;P1;durP2;ratioP2;P2;SDS_P1;SDS_P2;PMS_P1;PMS_P2;Temp;Humidity;BMP_temperature;BMP_pressure;BME280_temperature;BME280_humidity;BME280_pressure;Samples;Min_cycle;Max_cycle;Signal;HPM_P1;HPM_P2
2021/12/12 00:02:32;;;;;;;21.03;11.63;;;3.40;99.90;;;;;;5022823;28;20171;-86
2021/12/12 00:04:59;;;;;;;19.50;11.67;;;3.40;99.90;;;;;;5006511;28;20176;-86
2021/12/12 00:07:30;;;;;;;14.00;11.67;;;3.30;99.90;;;;;;5006399;28;20207;-86
2021/12/12 00:10:03;;;;;;;27.13;13.13;;;3.30;99.90;;;;;;5001314;28;20254;-88
2021/12/12 00:12:37;;;;;;;17.07;11.80;;;3.40;99.90;;;;;;5001384;28;20182;-87
2021/12/12 00:15:05;;;;;;;16.33;11.97;;;3.30;99.90;;;;;;5019718;28;20618;-86
2021/12/12 00:17:31;;;;;;;15.37;11.47;;;3.30;99.90;;;;;;5020012;28;20214;-86
2021/12/12 00:19:56;;;;;;;16.57;10.47;;;3.30;99.90;;;;;;5001669;28;20227;-85
2021/12/12 00:22:26;;;;;;;17.37;10.80;;;3.30;99.90;;;;;;5001427;28;20603;-86
2021/12/12 00:24:52;;;;;;;18.20;11.20;;;3.30;99.90;;;;;;5002091;28;20603;-86
2021/12/12 00:27:19;;;;;;;21.10;12.77;;;3.20;99.90;;;;;;5002030;28;20270;-86
2021/12/12 00:29:46;;;;;;;21.03;10.90;;;3.20;99.90;;;;;;5001934;28;20277;-86
2021/12/12 00:32:14;;;;;;;16.00;10.47;;;3.20;99.90;;;;;;5002136;28;20181;-85
2021/12/12 00:35:00;;;;;;;12.03;10.63;;;3.20;99.90;;;;;;5019826;28;20180;-87
2021/12/12 00:37:28;;;;;;;15.67;10.63;;;3.20;99.90;;;;;;5002615;28;20540;-86
2021/12/12 00:39:59;;;;;;;13.73;10.93;;;3.20;99.90;;;;;;5020191;28;20238;-85
2021/12/12 00:42:31;;;;;;;15.63;10.13;;;3.20;99.90;;;;;;5002379;28;20263;-86
2021/12/12 00:44:59;;;;;;;14.47;9.77;;;3.20;99.90;;;;;;5001974;28;20614;-86
2021/12/12 00:47:26;;;;;;;13.30;9.97;;;3.20;99.90;;;;;;5002193;28;20286;-87
2021/12/12 00:49:52;;;;;;;15.77;10.03;;;3.20;99.90;;;;;;5001819;28;20206;-85
2021/12/12 00:52:20;;;;;;;17.30;10.07;;;3.20;99.90;;;;;;5003401;28;20610;-86
2021/12/12 00:54:46;;;;;;;16.53;10.33;;;3.20;99.90;;;;;;5003428;28;20175;-85
2021/12/12 00:57:15;;;;;;;11.97;9.10;;;3.20;99.90;;;;;;5003722;28;20659;-85
2021/12/12 00:59:43;;;;;;;15.87;9.60;;;3.20;99.90;;;;;;5003350;28;20207;-86
2021/12/12 01:02:16;;;;;;;17.57;10.30;;;3.30;99.90;;;;;;5000533;28;20183;-85
2021/12/12 01:04:45;;;;;;;10.87;9.00;;;3.20;99.90;;;;;;5000783;28;20517;-85
2021/12/12 01:07:15;;;;;;;19.67;9.80;;;3.20;99.90;;;;;;5018842;28;20693;-85
2021/12/12 01:09:47;;;;;;;13.67;9.23;;;3.30;99.90;;;;;;5001922;28;20195;-85
2021/12/12 01:12:17;;;;;;;14.47;9.33;;;3.30;99.90;;;;;;5018051;28;20183;-88
2021/12/12 01:14:50;;;;;;;10.60;8.73;;;3.30;99.90;;;;;;5018413;28;20194;-88
2021/12/12 01:17:37;;;;;;;16.17;8.27;;;3.30;99.90;;;;;;5000332;28;20526;-88
2021/12/12 01:20:21;;;;;;;13.90;7.97;;;3.30;99.90;;;;;;5000097;28;20220;-87
2021/12/12 01:22:52;;;;;;;14.27;9.27;;;3.30;99.90;;;;;;5000792;28;20666;-88
2021/12/12 01:25:25;;;;;;;11.43;8.30;;;3.40;99.90;;;;;;5000051;28;20210;-88
2021/12/12 01:27:52;;;;;;;10.93;8.33;;;3.40;99.90;;;;;;5000280;28;20248;-88
2021/12/12 01:30:19;;;;;;;10.80;8.17;;;3.40;99.90;;;;;;5000175;28;20215;-88
2021/12/12 01:32:52;;;;;;;10.53;8.00;;;3.40;99.90;;;;;;5001979;28;20278;-86
2021/12/12 01:35:19;;;;;;;9.20;7.83;;;3.40;99.90;;;;;;5003160;28;20192;-87
2021/12/12 01:40:43;;;;;;;14.77;8.63;;;3.40;99.90;;;;;;5021604;28;20731;-85
2021/12/12 01:43:19;;;;;;;11.27;7.93;;;3.40;99.90;;;;;;5004045;28;20666;-86
2021/12/12 01:45:48;;;;;;;14.03;7.83;;;3.50;99.90;;;;;;5003934;28;20202;-86
2021/12/12 01:48:25;;;;;;;12.00;7.80;;;3.50;99.90;;;;;;5021696;28;20210;-86
2021/12/12 01:50:56;;;;;;;10.50;7.87;;;3.50;99.90;;;;;;5004201;28;20196;-86
2021/12/12 01:53:26;;;;;;;13.77;8.57;;;3.50;99.90;;;;;;5003990;28;20184;-85
2021/12/12 01:55:58;;;;;;;14.67;8.33;;;3.50;99.90;;;;;;5004170;28;20191;-85
2021/12/12 01:58:28;;;;;;;10.27;7.67;;;3.50;99.90;;;;;;5005067;28;20191;-85
2021/12/12 02:00:58;;;;;;;14.57;7.97;;;3.50;99.90;;;;;;5001649;28;20210;-87
2021/12/12 02:03:27;;;;;;;11.63;7.77;;;3.50;99.90;;;;;;4999271;28;20211;-87
2021/12/12 02:05:56;;;;;;;12.83;7.93;;;3.60;99.90;;;;;;4998919;28;20183;-87
2021/12/12 02:08:22;;;;;;;14.97;9.00;;;3.60;99.90;;;;;;4998843;28;20247;-87
2021/12/12 02:10:59;;;;;;;12.03;7.27;;;3.60;99.90;;;;;;5002213;28;20195;-85
2021/12/12 02:13:27;;;;;;;13.63;8.10;;;3.60;99.90;;;;;;5020507;28;20187;-86
2021/12/12 02:15:58;;;;;;;11.87;8.47;;;3.60;99.90;;;;;;5002645;28;20187;-85
2021/12/12 02:18:29;;;;;;;13.50;8.17;;;3.60;99.90;;;;;;5002547;28;20176;-86
2021/12/12 02:21:21;;;;;;;11.00;7.90;;;3.60;99.90;;;;;;4999130;28;20242;-87
2021/12/12 02:37:25;;;;;;;10.57;7.83;;;3.60;99.90;;;;;;5017394;28;20524;-87
2021/12/12 02:39:51;;;;;;;12.20;8.70;;;3.70;99.90;;;;;;5016058;28;20196;-87
2021/12/12 02:42:21;;;;;;;9.50;8.50;;;3.70;99.90;;;;;;4999504;28;20194;-87
2021/12/12 02:44:48;;;;;;;8.83;7.10;;;3.70;99.90;;;;;;4999765;28;20581;-87
2021/12/12 02:47:20;;;;;;;11.47;8.07;;;3.80;99.90;;;;;;4998422;28;20231;-87
2021/12/12 02:52:22;;;;;;;15.50;8.10;;;3.80;99.90;;;;;;5016162;28;20191;-88
2021/12/12 02:54:48;;;;;;;10.53;7.40;;;3.80;99.90;;;;;;4998982;28;20266;-88
2021/12/12 02:57:17;;;;;;;10.37;7.70;;;3.80;99.90;;;;;;4998750;28;20270;-87
2021/12/12 02:59:48;;;;;;;7.73;7.03;;;3.90;99.90;;;;;;4998831;28;20210;-87
2021/12/12 03:02:26;;;;;;;8.17;7.40;;;3.90;99.90;;;;;;4998542;28;20179;-87
2021/12/12 03:04:53;;;;;;;8.80;7.40;;;3.90;99.90;;;;;;4998743;28;20535;-86
2021/12/12 03:07:19;;;;;;;8.50;7.63;;;3.90;99.90;;;;;;4998517;28;20183;-87
2021/12/12 03:09:54;;;;;;;15.63;6.70;;;3.80;99.90;;;;;;4998375;28;20196;-87
2021/12/12 03:12:33;;;;;;;9.87;6.97;;;3.90;99.90;;;;;;4998613;28;20179;-87
2021/12/12 03:15:06;;;;;;;11.37;7.20;;;3.80;99.90;;;;;;4997955;28;20588;-88
2021/12/12 03:17:32;;;;;;;11.53;7.63;;;3.80;99.90;;;;;;4998034;28;20164;-88
2021/12/12 03:20:01;;;;;;;10.37;7.87;;;3.80;99.90;;;;;;4997612;28;20254;-88
2021/12/12 03:22:28;;;;;;;10.70;7.90;;;3.80;99.90;;;;;;4997877;28;20180;-88
2021/12/12 03:24:55;;;;;;;10.70;7.80;;;3.70;99.90;;;;;;4997873;28;20183;-88
2021/12/12 03:27:23;;;;;;;9.57;7.37;;;3.70;99.90;;;;;;4998037;28;20274;-88
2021/12/12 03:29:51;;;;;;;9.83;7.83;;;3.70;99.90;;;;;;4998114;28;20561;-87
2021/12/12 03:32:20;;;;;;;9.00;7.17;;;3.70;99.90;;;;;;4998201;28;20367;-88
2021/12/12 03:34:52;;;;;;;11.33;7.90;;;3.80;99.90;;;;;;4997666;28;20175;-88
2021/12/12 03:37:22;;;;;;;8.47;7.57;;;3.70;99.90;;;;;;4997972;28;20174;-87
2021/12/12 03:39:51;;;;;;;12.87;7.53;;;3.80;99.90;;;;;;4998008;28;20305;-88
2021/12/12 03:42:22;;;;;;;9.90;7.50;;;3.80;99.90;;;;;;5015676;28;20182;-87
2021/12/12 03:44:49;;;;;;;8.23;7.27;;;3.90;99.90;;;;;;4998672;28;20179;-86
2021/12/12 03:47:36;;;;;;;11.53;7.37;;;3.90;99.90;;;;;;5000229;28;20180;-88
2021/12/12 03:50:08;;;;;;;11.20;7.60;;;3.90;99.90;;;;;;4998876;28;20744;-87
2021/12/12 03:52:34;;;;;;;14.90;7.20;;;3.90;99.90;;;;;;4998525;28;20171;-88
2021/12/12 03:55:01;;;;;;;9.10;7.77;;;4.00;99.90;;;;;;4998839;28;20625;-85
2021/12/12 03:57:29;;;;;;;10.57;8.13;;;4.00;99.90;;;;;;4999542;28;20234;-85
2021/12/12 03:59:55;;;;;;;9.80;7.13;;;4.10;99.90;;;;;;5000262;28;20282;-85
2021/12/12 04:02:21;;;;;;;11.30;8.23;;;4.10;99.90;;;;;;5000175;28;20222;-85
2021/12/12 04:04:48;;;;;;;12.37;7.97;;;4.00;99.90;;;;;;5000348;28;20180;-86
2021/12/12 04:07:23;;;;;;;10.10;7.83;;;4.10;99.90;;;;;;5000574;28;20184;-85
2021/12/12 04:09:49;;;;;;;15.17;8.10;;;4.10;99.90;;;;;;4999894;28;20273;-85
2021/12/12 04:12:18;;;;;;;15.10;8.40;;;4.10;99.90;;;;;;5000639;28;20176;-85
2021/12/12 04:14:45;;;;;;;12.47;8.40;;;4.10;99.90;;;;;;5001437;28;20263;-85
2021/12/12 04:17:15;;;;;;;12.40;7.53;;;4.10;99.90;;;;;;4999291;28;20176;-86
2021/12/12 04:19:44;;;;;;;11.47;7.83;;;4.00;99.90;;;;;;4996533;28;20211;-85
2021/12/12 04:22:11;;;;;;;10.80;7.77;;;4.00;99.90;;;;;;4998706;28;20279;-86
2021/12/12 04:24:40;;;;;;;15.17;8.83;;;4.00;99.90;;;;;;4997911;28;20311;-85
2021/12/12 04:27:07;;;;;;;12.37;7.60;;;4.00;99.90;;;;;;4997474;28;20207;-85
2021/12/12 04:29:38;;;;;;;9.20;7.27;;;4.00;99.90;;;;;;4997705;28;20223;-85
2021/12/12 04:32:15;;;;;;;10.73;7.53;;;3.90;99.90;;;;;;5015799;28;20160;-85
2021/12/12 04:34:45;;;;;;;12.33;7.30;;;3.90;99.90;;;;;;5016299;28;20164;-85
2021/12/12 04:37:11;;;;;;;16.60;8.47;;;3.90;99.90;;;;;;5008580;28;20203;-85
2021/12/12 04:39:41;;;;;;;10.30;7.70;;;3.90;99.90;;;;;;4997981;28;20210;-86
2021/12/12 04:42:27;;;;;;;13.00;7.40;;;4.00;99.90;;;;;;4998797;28;20179;-85
2021/12/12 04:45:09;;;;;;;10.37;8.53;;;4.00;99.90;;;;;;4998190;28;20192;-85
2021/12/12 04:50:56;;;;;;;8.20;7.30;;;4.00;99.90;;;;;;5021493;28;20619;-85
2021/12/12 04:53:41;;;;;;;8.30;7.50;;;4.00;99.90;;;;;;5003155;28;20167;-85
2021/12/12 04:56:10;;;;;;;8.97;7.20;;;4.00;99.90;;;;;;5003711;28;20199;-85
2021/12/12 04:58:43;;;;;;;10.10;7.43;;;4.10;99.90;;;;;;5003954;28;20182;-85
2021/12/12 05:01:30;;;;;;;11.97;8.03;;;4.10;99.90;;;;;;5004047;28;20246;-85
2021/12/12 05:04:15;;;;;;;14.30;7.73;;;4.20;99.90;;;;;;5022172;28;20283;-85
2021/12/12 05:06:45;;;;;;;9.00;7.40;;;4.10;99.90;;;;;;5004434;28;20178;-85
2021/12/12 05:09:32;;;;;;;12.33;8.23;;;4.10;99.90;;;;;;5004417;28;20222;-86
2021/12/12 05:12:15;;;;;;;14.23;8.00;;;4.10;99.90;;;;;;5003681;28;20168;-86
2021/12/12 05:14:46;;;;;;;10.07;7.53;;;4.00;99.90;;;;;;5003593;28;20178;-86
2021/12/12 05:17:37;;;;;;;9.60;7.37;;;4.00;99.90;;;;;;5003249;28;20171;-86
2021/12/12 05:20:07;;;;;;;12.50;7.47;;;4.00;99.90;;;;;;5002972;28;20219;-86
2021/12/12 05:22:50;;;;;;;8.73;7.77;;;3.90;99.90;;;;;;5020553;28;20172;-86
2021/12/12 05:26:00;;;;;;;14.17;7.87;;;4.00;99.90;;;;;;5003388;28;20630;-86
2021/12/12 05:28:43;;;;;;;12.73;7.47;;;4.00;99.90;;;;;;4967023;28;20183;-86
2021/12/12 05:31:10;;;;;;;10.37;7.43;;;4.00;99.90;;;;;;5003551;28;20571;-86
2021/12/12 05:33:37;;;;;;;12.47;7.67;;;4.00;99.90;;;;;;5021259;28;20233;-86
2021/12/12 05:36:07;;;;;;;11.83;7.53;;;4.10;99.90;;;;;;5003568;28;20188;-86
2021/12/12 05:38:34;;;;;;;12.80;8.20;;;4.00;99.90;;;;;;5004103;28;20168;-85
2021/12/12 05:41:00;;;;;;;11.50;8.27;;;4.00;99.90;;;;;;5003175;28;20203;-86
2021/12/12 05:43:26;;;;;;;10.50;8.13;;;4.00;99.90;;;;;;5003507;28;20199;-86
2021/12/12 05:45:53;;;;;;;17.10;8.20;;;4.10;99.90;;;;;;5000039;28;20180;-85
2021/12/12 05:48:20;;;;;;;11.03;7.43;;;4.10;99.90;;;;;;5000059;28;20179;-85
2021/12/12 05:50:46;;;;;;;11.07;8.00;;;4.10;99.90;;;;;;5000687;28;20254;-85
2021/12/12 05:53:14;;;;;;;16.60;8.63;;;4.10;99.90;;;;;;5000986;28;20179;-85
2021/12/12 05:55:41;;;;;;;10.47;7.13;;;4.10;99.90;;;;;;5001934;28;20187;-85
2021/12/12 05:58:10;;;;;;;13.73;7.67;;;4.10;99.90;;;;;;5000417;28;20222;-85
2021/12/12 06:00:43;;;;;;;14.30;7.93;;;4.20;99.90;;;;;;5019528;28;20192;-86
2021/12/12 06:03:11;;;;;;;13.87;7.90;;;4.20;99.90;;;;;;5001584;28;20199;-86
2021/12/12 06:05:38;;;;;;;11.47;7.80;;;4.20;99.90;;;;;;5002364;28;20172;-85
2021/12/12 06:08:05;;;;;;;10.90;7.93;;;4.30;99.90;;;;;;5002819;28;20180;-85
2021/12/12 06:10:33;;;;;;;10.97;8.10;;;4.30;99.90;;;;;;5002974;28;20196;-85
2021/12/12 06:13:00;;;;;;;11.70;7.53;;;4.30;99.90;;;;;;4999704;28;20180;-85
2021/12/12 06:15:28;;;;;;;11.47;6.97;;;4.30;99.90;;;;;;5015921;28;20187;-86
2021/12/12 06:17:55;;;;;;;11.73;7.47;;;4.40;99.90;;;;;;4998396;28;20180;-86
2021/12/12 06:20:21;;;;;;;12.40;7.80;;;4.40;99.90;;;;;;4997713;28;20250;-85
2021/12/12 06:22:48;;;;;;;15.33;7.97;;;4.40;99.90;;;;;;4998220;28;20218;-85
2021/12/12 06:25:14;;;;;;;20.20;8.27;;;4.30;99.90;;;;;;4997890;28;20200;-85
2021/12/12 06:27:40;;;;;;;13.20;7.97;;;4.30;99.90;;;;;;4997761;28;20609;-85
2021/12/12 06:30:14;;;;;;;12.63;7.57;;;4.30;99.90;;;;;;4997931;28;20286;-85
2021/12/12 06:32:42;;;;;;;7.40;6.77;;;4.40;99.90;;;;;;4997711;28;20283;-85
2021/12/12 06:35:09;;;;;;;18.17;7.97;;;4.30;99.90;;;;;;4997709;28;20179;-85
2021/12/12 06:37:35;;;;;;;11.63;8.77;;;4.30;99.90;;;;;;4997935;28;20180;-85
2021/12/12 06:40:04;;;;;;;14.03;7.80;;;4.30;99.90;;;;;;4997557;28;20215;-86
2021/12/12 06:42:30;;;;;;;13.57;7.73;;;4.40;99.90;;;;;;4997531;28;20180;-85
2021/12/12 06:44:56;;;;;;;11.17;7.27;;;4.40;99.90;;;;;;4997786;28;20176;-85
2021/12/12 06:47:22;;;;;;;11.67;7.70;;;4.50;99.90;;;;;;4998286;28;20175;-85
2021/12/12 06:49:48;;;;;;;10.47;7.23;;;4.50;99.90;;;;;;4998101;28;20196;-85
2021/12/12 06:52:16;;;;;;;12.90;7.47;;;4.50;99.90;;;;;;5017677;28;20172;-85
2021/12/12 06:54:42;;;;;;;12.57;8.27;;;4.60;99.90;;;;;;5001292;28;20211;-85
2021/12/12 06:57:11;;;;;;;15.30;7.53;;;4.60;99.90;;;;;;5001547;28;20190;-85
2021/12/12 06:59:39;;;;;;;14.17;7.83;;;4.60;99.90;;;;;;5001498;28;20574;-85
2021/12/12 07:02:07;;;;;;;8.23;7.00;;;4.60;99.90;;;;;;5000996;28;20182;-85
2021/12/12 07:04:34;;;;;;;13.07;7.67;;;4.70;99.90;;;;;;5000119;28;20346;-84
2021/12/12 07:07:03;;;;;;;10.77;7.50;;;4.70;99.90;;;;;;5000236;28;20215;-84
2021/12/12 07:09:35;;;;;;;7.83;6.90;;;4.70;99.90;;;;;;4999919;28;20211;-85
2021/12/12 07:12:04;;;;;;;9.03;7.30;;;4.70;99.90;;;;;;5000381;28;20172;-85
2021/12/12 07:14:31;;;;;;;8.77;7.23;;;4.70;99.90;;;;;;4999774;28;20664;-85
2021/12/12 07:16:58;;;;;;;10.50;7.30;;;4.70;99.90;;;;;;4999888;28;20204;-85
2021/12/12 07:19:24;;;;;;;9.57;7.33;;;4.60;99.90;;;;;;5000533;28;20218;-86
2021/12/12 07:21:50;;;;;;;8.80;7.23;;;4.60;99.90;;;;;;5018604;28;20626;-85
2021/12/12 07:24:23;;;;;;;10.87;8.20;;;4.60;99.90;;;;;;5000186;28;20254;-85
2021/12/12 07:26:49;;;;;;;10.77;8.53;;;4.60;99.90;;;;;;4997908;28;20172;-85
2021/12/12 07:29:14;;;;;;;8.13;7.40;;;4.60;99.90;;;;;;4999296;28;20250;-85
2021/12/12 07:31:42;;;;;;;9.53;7.27;;;4.60;99.90;;;;;;4997056;28;20175;-85
2021/12/12 07:34:11;;;;;;;7.60;6.90;;;4.60;99.90;;;;;;4996706;28;20180;-85
2021/12/12 07:36:46;;;;;;;8.73;7.10;;;4.60;99.90;;;;;;4996726;28;20192;-85
2021/12/12 07:39:15;;;;;;;8.03;7.00;;;4.60;99.90;;;;;;5014449;28;20190;-87
2021/12/12 07:41:45;;;;;;;8.00;7.20;;;4.60;99.90;;;;;;4996634;28;20664;-86
2021/12/12 07:44:14;;;;;;;7.97;7.23;;;4.60;99.90;;;;;;4996504;28;20271;-87
2021/12/12 07:46:43;;;;;;;8.50;7.30;;;4.60;99.90;;;;;;4996751;28;20186;-89
2021/12/12 07:49:09;;;;;;;7.90;7.20;;;4.60;99.90;;;;;;4997454;28;20246;-89
2021/12/12 07:51:37;;;;;;;7.10;6.40;;;4.60;99.90;;;;;;4997268;28;20179;-89
2021/12/12 07:54:06;;;;;;;9.03;7.17;;;4.60;99.90;;;;;;4996981;28;20179;-89
2021/12/12 07:56:34;;;;;;;8.40;7.03;;;4.60;99.90;;;;;;4996671;28;20180;-84
2021/12/12 07:59:03;;;;;;;8.07;7.10;;;4.60;99.90;;;;;;4996529;28;20184;-84
2021/12/12 08:01:29;;;;;;;7.83;6.80;;;4.60;99.90;;;;;;4996575;28;20212;-85
2021/12/12 08:03:56;;;;;;;8.73;6.77;;;4.60;99.90;;;;;;4996469;28;20294;-84
2021/12/12 08:06:23;;;;;;;7.27;6.57;;;4.60;99.90;;;;;;4996415;28;20184;-84
2021/12/12 08:08:50;;;;;;;7.07;6.47;;;4.60;99.90;;;;;;5013869;28;20184;-84
2021/12/12 08:11:20;;;;;;;6.80;6.20;;;4.60;99.90;;;;;;4996826;28;20184;-84
2021/12/12 08:13:46;;;;;;;7.73;6.17;;;4.70;99.90;;;;;;4996544;28;20179;-84
2021/12/12 08:16:14;;;;;;;7.27;6.30;;;4.70;99.90;;;;;;4997099;28;20191;-84
2021/12/12 08:18:41;;;;;;;7.07;6.37;;;4.70;99.90;;;;;;4997257;28;20184;-84
2021/12/12 08:21:08;;;;;;;6.90;6.30;;;4.70;99.90;;;;;;4997376;28;20223;-84
2021/12/12 08:23:35;;;;;;;6.60;6.10;;;4.80;99.90;;;;;;5000684;28;20211;-83
2021/12/12 08:26:02;;;;;;;7.40;5.80;;;4.80;99.90;;;;;;5000028;28;20180;-83
2021/12/12 08:28:30;;;;;;;6.87;6.27;;;4.80;99.90;;;;;;4999940;28;20190;-83
2021/12/12 08:30:56;;;;;;;6.17;5.67;;;4.90;99.90;;;;;;5000013;28;20290;-83
2021/12/12 08:33:23;;;;;;;6.83;6.23;;;4.90;99.90;;;;;;4999894;28;20266;-83
2021/12/12 08:35:50;;;;;;;7.27;6.17;;;4.90;99.90;;;;;;5000045;28;20188;-83
2021/12/12 08:38:17;;;;;;;6.67;6.07;;;4.90;99.90;;;;;;5017452;28;20180;-83
2021/12/12 08:40:49;;;;;;;6.50;5.90;;;4.90;99.90;;;;;;5017267;28;20566;-83
2021/12/12 08:43:21;;;;;;;6.53;5.90;;;4.90;99.90;;;;;;4999913;28;20654;-83
2021/12/12 08:45:57;;;;;;;6.43;5.83;;;4.90;99.90;;;;;;5000019;28;20172;-83
2021/12/12 08:48:27;;;;;;;6.30;5.80;;;4.90;99.90;;;;;;5000113;28;20547;-83
2021/12/12 08:50:57;;;;;;;6.43;5.93;;;4.90;99.90;;;;;;5000043;28;20200;-83
2021/12/12 08:53:24;;;;;;;6.83;6.20;;;4.90;99.90;;;;;;4999969;28;20210;-83
2021/12/12 08:55:52;;;;;;;6.30;5.70;;;5.00;99.90;;;;;;4999909;28;20210;-83
2021/12/12 08:58:22;;;;;;;6.17;5.67;;;5.00;99.90;;;;;;4999932;28;20195;-83
2021/12/12 09:00:48;;;;;;;6.10;5.60;;;5.00;99.90;;;;;;5000492;28;20207;-84
2021/12/12 09:03:18;;;;;;;5.70;5.30;;;5.10;99.90;;;;;;4999871;28;20214;-84
2021/12/12 09:05:45;;;;;;;6.10;5.60;;;5.00;99.90;;;;;;4999549;28;20204;-84
2021/12/12 09:08:21;;;;;;;5.80;5.40;;;5.10;99.90;;;;;;4999264;28;20180;-84
2021/12/12 09:11:13;;;;;;;6.10;5.50;;;5.10;99.90;;;;;;4999220;28;20202;-84
2021/12/12 09:14:15;;;;;;;5.80;5.40;;;5.10;99.90;;;;;;4999499;28;20187;-84
2021/12/12 09:16:43;;;;;;;6.13;5.27;;;5.20;99.90;;;;;;4999476;28;20187;-84
2021/12/12 09:19:14;;;;;;;6.13;5.60;;;5.20;99.90;;;;;;4999693;28;20665;-84
2021/12/12 09:21:50;;;;;;;6.13;5.73;;;5.20;99.90;;;;;;4999479;28;20202;-83
2021/12/12 09:24:43;;;;;;;6.00;5.60;;;5.20;99.90;;;;;;4999392;28;20281;-83
2021/12/12 09:27:17;;;;;;;5.20;4.90;;;5.30;99.90;;;;;;4999541;28;20184;-83
2021/12/12 09:29:55;;;;;;;5.97;5.40;;;5.30;99.90;;;;;;4999069;28;20257;-84
2021/12/12 09:32:32;;;;;;;5.80;5.27;;;5.30;99.90;;;;;;4999170;28;20183;-84
2021/12/12 09:35:08;;;;;;;5.63;5.13;;;5.20;99.90;;;;;;4999481;28;20689;-84
2021/12/12 09:37:43;;;;;;;6.03;5.43;;;5.20;99.90;;;;;;4999057;28;20187;-84
2021/12/12 09:40:33;;;;;;;6.17;5.67;;;5.30;99.90;;;;;;4999211;28;20697;-84
2021/12/12 09:43:20;;;;;;;6.00;5.40;;;5.30;99.90;;;;;;4998965;28;20204;-84
2021/12/12 09:46:07;;;;;;;5.83;5.43;;;5.30;99.90;;;;;;5001012;28;20175;-84
2021/12/12 09:52:37;;;;;;;6.13;5.63;;;5.30;99.90;;;;;;5017808;28;20176;-84
2021/12/12 09:55:07;;;;;;;5.77;5.30;;;5.30;99.90;;;;;;4990134;28;20237;-84
2021/12/12 09:57:36;;;;;;;5.73;5.30;;;5.30;99.90;;;;;;4998902;28;20168;-84
2021/12/12 10:00:19;;;;;;;6.00;5.40;;;5.30;99.90;;;;;;4999125;28;20250;-84
2021/12/12 10:03:09;;;;;;;8.00;5.60;;;5.40;99.90;;;;;;4999234;28;20634;-84
2021/12/12 10:05:57;;;;;;;5.83;5.27;;;5.40;99.90;;;;;;5000282;28;20179;-84
2021/12/12 10:08:30;;;;;;;6.27;5.87;;;5.50;99.90;;;;;;4999454;28;20176;-84
2021/12/12 10:11:25;;;;;;;5.33;4.90;;;5.50;99.90;;;;;;5000609;28;20784;-84
2021/12/12 10:14:08;;;;;;;5.90;5.40;;;5.50;99.90;;;;;;5000591;28;20172;-84
2021/12/12 10:16:45;;;;;;;5.70;5.20;;;5.50;99.90;;;;;;5001200;28;20172;-84
2021/12/12 10:19:43;;;;;;;5.67;5.00;;;5.50;99.90;;;;;;4999661;28;20195;-84
2021/12/12 10:22:51;;;;;;;5.57;5.00;;;5.50;99.90;;;;;;4997482;28;20286;-84
2021/12/12 10:25:24;;;;;;;5.10;4.80;;;5.50;99.90;;;;;;4997883;28;20203;-84
2021/12/12 10:28:01;;;;;;;5.30;4.90;;;5.50;99.90;;;;;;4998515;28;20207;-84
2021/12/12 10:30:31;;;;;;;5.37;5.07;;;5.60;99.90;;;;;;4999076;28;20195;-84
2021/12/12 10:33:15;;;;;;;5.30;5.00;;;5.60;99.90;;;;;;4999040;28;20229;-84
2021/12/12 10:35:54;;;;;;;5.43;5.03;;;5.60;99.90;;;;;;4999668;28;20227;-84
2021/12/12 10:38:51;;;;;;;6.00;5.40;;;5.60;99.90;;;;;;5000435;28;20263;-84
2021/12/12 10:41:34;;;;;;;5.70;5.30;;;5.60;99.90;;;;;;4999883;28;20174;-84
2021/12/12 10:44:14;;;;;;;7.37;5.00;;;5.60;99.90;;;;;;4999715;28;20286;-84
2021/12/12 10:46:52;;;;;;;6.23;5.73;;;5.60;99.90;;;;;;5016359;28;20594;-84
2021/12/12 10:49:31;;;;;;;5.70;5.20;;;5.60;99.90;;;;;;4998778;28;20199;-85
2021/12/12 10:52:20;;;;;;;5.60;5.10;;;5.60;99.90;;;;;;4999474;28;20163;-84
2021/12/12 10:54:58;;;;;;;7.63;5.17;;;5.60;99.90;;;;;;5000331;28;20175;-84
2021/12/12 10:57:32;;;;;;;5.60;5.10;;;5.60;99.90;;;;;;5000385;28;20168;-84
2021/12/12 11:00:01;;;;;;;6.00;5.60;;;5.60;99.90;;;;;;4999352;28;20293;-85
2021/12/12 11:02:33;;;;;;;6.27;5.77;;;5.60;99.90;;;;;;5000892;28;20657;-85
2021/12/12 11:05:16;;;;;;;6.50;6.00;;;5.60;99.90;;;;;;5000182;28;20191;-85
2021/12/12 11:07:51;;;;;;;6.17;5.57;;;5.70;99.90;;;;;;5010495;28;20152;-85
2021/12/12 11:10:23;;;;;;;6.73;6.10;;;5.70;99.90;;;;;;5026092;23;20324;-62
2021/12/12 11:13:19;;;;;;;9.10;6.13;;;5.70;99.90;;;;;;5016034;28;20234;-63
2021/12/12 11:15:53;;;;;;;7.47;6.67;;;5.70;99.90;;;;;;5011505;28;20279;-63
2021/12/12 11:18:34;;;;;;;9.07;6.83;;;5.80;99.90;;;;;;5033610;28;20190;-64
2021/12/12 11:21:08;;;;;;;8.20;6.73;;;5.80;99.90;;;;;;5034011;28;20159;-64
2021/12/12 11:23:42;;;;;;;8.07;6.63;;;5.80;99.90;;;;;;5033552;28;20290;-67
2021/12/12 11:26:16;;;;;;;7.97;6.23;;;5.80;99.90;;;;;;5033625;28;20166;-66
2021/12/12 11:28:46;;;;;;;7.50;6.80;;;5.90;99.90;;;;;;5033729;28;20156;-66
2021/12/12 11:31:35;;;;;;;7.27;6.47;;;5.90;99.90;;;;;;5033864;28;20595;-67
2021/12/12 11:34:03;;;;;;;8.33;7.00;;;5.90;99.90;;;;;;5033551;28;20199;-66
2021/12/12 11:36:37;;;;;;;7.57;6.87;;;5.90;99.90;;;;;;5033372;28;20187;-63
2021/12/12 11:39:23;;;;;;;7.93;7.13;;;5.90;99.90;;;;;;5033580;28;20549;-63
2021/12/12 11:42:00;;;;;;;8.37;7.50;;;5.90;99.90;;;;;;5033466;28;20612;-63
2021/12/12 11:44:41;;;;;;;8.07;7.27;;;5.90;99.90;;;;;;5033064;28;20198;-62
2021/12/12 11:47:32;;;;;;;6.90;6.23;;;5.90;99.90;;;;;;5033744;28;20232;-62
2021/12/12 11:50:02;;;;;;;8.13;7.33;;;5.90;99.90;;;;;;5033410;28;20178;-63
2021/12/12 11:52:43;;;;;;;8.83;7.07;;;6.00;99.90;;;;;;5033201;28;20160;-63
2021/12/12 11:55:19;;;;;;;7.07;6.43;;;6.00;99.90;;;;;;5034364;28;20175;-62
2021/12/12 11:58:18;;;;;;;9.23;7.60;;;6.10;99.90;;;;;;5019405;28;20162;-62
2021/12/12 12:01:07;;;;;;;8.53;6.97;;;6.10;99.90;;;;;;5033090;28;20739;-61
2021/12/12 12:04:04;;;;;;;7.90;6.97;;;6.10;99.90;;;;;;5036097;28;20230;-61
2021/12/12 12:07:03;;;;;;;8.20;7.23;;;6.10;99.90;;;;;;5036942;28;20611;-62
2021/12/12 12:09:32;;;;;;;7.60;6.80;;;6.20;99.90;;;;;;5019128;28;20269;-61
2021/12/12 12:12:18;;;;;;;7.40;6.70;;;6.20;99.90;;;;;;5036848;28;20190;-62
2021/12/12 12:15:08;;;;;;;6.83;6.23;;;6.20;99.90;;;;;;5036883;28;20201;-63
2021/12/12 12:17:48;;;;;;;7.60;6.23;;;6.20;99.90;;;;;;5019573;28;20171;-63
2021/12/12 12:20:25;;;;;;;7.10;6.10;;;6.20;99.90;;;;;;5036703;28;20532;-64
2021/12/12 12:23:01;;;;;;;6.53;5.93;;;6.20;99.90;;;;;;5018787;28;20199;-65
2021/12/12 12:28:29;;;;;;;6.73;5.97;;;6.30;99.90;;;;;;5037059;28;20530;-62
2021/12/12 12:31:19;;;;;;;6.63;6.03;;;6.30;99.90;;;;;;5036645;28;20159;-62
2021/12/12 12:34:06;;;;;;;7.27;6.00;;;6.30;99.90;;;;;;5036525;28;20576;-62
2021/12/12 12:37:09;;;;;;;6.83;6.13;;;6.40;99.90;;;;;;5018659;28;20653;-63
2021/12/12 12:40:02;;;;;;;6.37;5.83;;;6.40;99.90;;;;;;5036352;28;20220;-63
2021/12/12 12:43:12;;;;;;;6.90;6.13;;;6.40;99.90;;;;;;5036270;28;20181;-63
2021/12/12 12:46:15;;;;;;;6.43;5.83;;;6.40;99.90;;;;;;5036212;28;20186;-63
2021/12/12 12:49:18;;;;;;;6.60;6.00;;;6.40;99.90;;;;;;5036127;28;20166;-62
2021/12/12 12:51:49;;;;;;;6.00;5.50;;;6.40;99.90;;;;;;5018373;28;20305;-63
2021/12/12 12:54:25;;;;;;;6.30;5.80;;;6.40;99.90;;;;;;5018357;28;20655;-63
2021/12/12 12:57:21;;;;;;;6.10;5.50;;;6.50;99.90;;;;;;5036524;28;20163;-62
2021/12/12 12:59:57;;;;;;;6.20;5.60;;;6.50;99.90;;;;;;5036512;28;20160;-63
2021/12/12 13:02:38;;;;;;;5.67;5.27;;;6.50;99.90;;;;;;5036580;28;20186;-62
2021/12/12 13:05:07;;;;;;;6.20;5.70;;;6.50;99.90;;;;;;5036213;28;20241;-64
2021/12/12 13:07:41;;;;;;;6.30;5.80;;;6.50;99.90;;;;;;5035187;28;20168;-63
2021/12/12 13:10:17;;;;;;;6.07;5.57;;;6.50;99.90;;;;;;5035903;28;20190;-63
2021/12/12 13:13:13;;;;;;;6.00;5.50;;;6.50;99.90;;;;;;5017966;28;20551;-63
2021/12/12 13:16:24;;;;;;;6.00;5.40;;;6.60;99.90;;;;;;5018086;28;20171;-63
2021/12/12 13:19:03;;;;;;;5.80;5.40;;;6.60;99.90;;;;;;4988190;28;20618;-63
2021/12/12 13:21:38;;;;;;;6.00;5.50;;;6.60;99.90;;;;;;5035611;28;20186;-63
2021/12/12 13:24:24;;;;;;;6.20;5.60;;;6.60;99.90;;;;;;5035529;28;20201;-63
2021/12/12 13:27:15;;;;;;;6.20;5.60;;;6.60;99.90;;;;;;5035824;28;20167;-63
2021/12/12 13:30:05;;;;;;;6.00;5.47;;;6.60;99.90;;;;;;5017657;28;20164;-63
2021/12/12 13:32:46;;;;;;;8.60;5.80;;;6.70;99.90;;;;;;5035590;28;20191;-63
2021/12/12 13:35:17;;;;;;;6.00;5.50;;;6.70;99.90;;;;;;5035584;28;20232;-63
2021/12/12 13:38:04;;;;;;;6.20;5.60;;;6.70;99.90;;;;;;5017565;28;20171;-63
2021/12/12 13:40:39;;;;;;;6.37;5.87;;;6.70;99.90;;;;;;5035195;28;20160;-63
2021/12/12 13:43:29;;;;;;;5.73;5.20;;;6.70;99.90;;;;;;5035303;28;20193;-63
2021/12/12 13:46:24;;;;;;;6.50;5.90;;;6.70;99.90;;;;;;5035545;28;20164;-63
2021/12/12 13:49:22;;;;;;;6.10;5.53;;;6.70;99.90;;;;;;5035195;28;20575;-63
2021/12/12 13:52:03;;;;;;;5.87;5.37;;;6.70;99.90;;;;;;5020903;28;20191;-63
2021/12/12 13:54:32;;;;;;;6.70;6.10;;;6.70;99.90;;;;;;5035103;28;20750;-63
2021/12/12 13:57:25;;;;;;;6.40;5.80;;;6.60;99.90;;;;;;5034922;28;20179;-63
2021/12/12 14:00:26;;;;;;;6.50;5.87;;;6.70;99.90;;;;;;5035259;28;20164;-63